createdAt,value
2018-04-23T00:02:22.591Z,19.80
2018-04-23T00:04:49.874Z,19.70
2018-04-23T00:07:16.107Z,19.60
2018-04-23T00:09:42.281Z,19.60
2018-04-23T00:12:08.478Z,19.60
2018-04-23T00:14:35.375Z,19.70
2018-04-23T00:17:01.567Z,19.60
2018-04-23T00:19:27.746Z,19.60
2018-04-23T00:21:53.973Z,19.60
2018-04-23T00:24:20.143Z,19.60
2018-04-23T00:26:46.346Z,19.30
2018-04-23T00:29:12.542Z,19.20
2018-04-23T00:31:38.701Z,19.30
2018-04-23T00:36:32.810Z,19.20
2018-04-23T00:38:59.009Z,19.00
2018-04-23T00:41:25.181Z,19.30
2018-04-23T00:43:51.350Z,19.20
2018-04-23T00:46:17.545Z,19.30
2018-04-23T00:48:43.762Z,19.20
2018-04-23T00:51:09.929Z,19.30
2018-04-23T00:53:37.972Z,19.30
2018-04-23T00:56:04.179Z,19.30
2018-04-23T00:58:30.358Z,19.20
2018-04-23T01:00:56.539Z,19.30
2018-04-23T01:03:23.835Z,19.30
2018-04-23T01:05:50.021Z,19.30
2018-04-23T01:08:16.247Z,19.30
2018-04-23T01:10:42.455Z,19.30
2018-04-23T01:13:08.635Z,19.20
2018-04-23T01:15:35.947Z,19.20
2018-04-23T01:18:02.147Z,19.20
2018-04-23T01:20:28.306Z,18.90
2018-04-23T01:22:54.485Z,18.90
2018-04-23T01:25:20.630Z,19.10
2018-04-23T01:27:46.886Z,19.20
2018-04-23T01:30:13.100Z,19.20
2018-04-23T01:32:39.283Z,19.30
2018-04-23T01:35:05.469Z,19.20
2018-04-23T01:37:31.657Z,19.00
2018-04-23T01:39:57.830Z,19.10
2018-04-23T01:42:24.007Z,19.30
2018-04-23T01:44:51.282Z,19.30
2018-04-23T01:47:17.510Z,19.30
2018-04-23T01:49:43.740Z,19.30
2018-04-23T01:52:09.923Z,19.30
2018-04-23T01:54:36.122Z,19.10
2018-04-23T01:57:02.308Z,19.00
2018-04-23T01:59:29.615Z,19.10
2018-04-23T02:01:55.802Z,19.10
2018-04-23T02:04:21.970Z,19.10
2018-04-23T02:06:49.621Z,19.20
2018-04-23T02:09:16.966Z,19.10
2018-04-23T02:11:43.170Z,19.10
2018-04-23T02:14:10.472Z,19.10
2018-04-23T02:16:36.640Z,19.10
2018-04-23T02:19:03.547Z,19.20
2018-04-23T02:21:30.947Z,19.20
2018-04-23T02:23:57.125Z,19.10
2018-04-23T02:26:23.310Z,19.10
2018-04-23T02:28:49.510Z,19.00
2018-04-23T02:31:15.715Z,19.00
2018-04-23T02:33:41.906Z,19.10
2018-04-23T02:36:08.073Z,19.00
2018-04-23T02:38:35.350Z,19.10
2018-04-23T02:41:01.555Z,19.10
2018-04-23T02:43:27.715Z,19.10
2018-04-23T02:45:53.878Z,19.00
2018-04-23T02:48:20.059Z,19.10
2018-04-23T02:50:47.407Z,19.00
2018-04-23T02:53:13.601Z,18.90
2018-04-23T02:55:39.808Z,18.90
2018-04-23T02:58:05.987Z,18.70
2018-04-23T03:00:32.184Z,18.80
2018-04-23T03:02:58.379Z,18.70
2018-04-23T03:05:24.562Z,18.70
2018-04-23T03:07:50.733Z,18.60
2018-04-23T03:10:16.966Z,18.60
2018-04-23T03:12:43.171Z,18.40
2018-04-23T03:15:09.358Z,18.50
2018-04-23T03:17:37.336Z,18.30
2018-04-23T03:20:05.805Z,18.30
2018-04-23T03:22:33.764Z,18.30
2018-04-23T03:25:02.507Z,18.10
2018-04-23T03:27:28.685Z,18.40
2018-04-23T03:29:54.858Z,18.10
2018-04-23T03:32:21.015Z,18.20
2018-04-23T03:34:48.325Z,18.20
2018-04-23T03:37:14.512Z,18.20
2018-04-23T03:39:40.689Z,18.30
2018-04-23T03:42:06.882Z,18.40
2018-04-23T03:44:33.082Z,18.20
2018-04-23T03:46:59.258Z,18.30
2018-04-23T03:49:25.498Z,18.30
2018-04-23T03:51:51.633Z,18.30
2018-04-23T03:54:17.805Z,18.20
2018-04-23T03:56:44.058Z,18.30
2018-04-23T03:59:10.225Z,18.30
2018-04-23T04:01:36.442Z,18.30
2018-04-23T04:04:03.702Z,18.20
2018-04-23T04:06:29.907Z,18.10
2018-04-23T04:08:56.119Z,18.10
2018-04-23T04:11:22.274Z,18.10
2018-04-23T04:14:01.875Z,18.10
2018-04-23T04:16:40.302Z,18.10
2018-04-23T04:19:07.614Z,18.20
2018-04-23T04:21:33.774Z,18.20
2018-04-23T04:24:00.002Z,18.10
2018-04-23T04:26:26.179Z,17.90
2018-04-23T04:28:52.351Z,18.00
2018-04-23T04:31:19.394Z,18.00
2018-04-23T04:33:46.774Z,18.20
2018-04-23T04:36:14.094Z,18.10
2018-04-23T04:38:41.409Z,18.00
2018-04-23T04:41:08.617Z,18.00
2018-04-23T04:43:34.802Z,18.10
2018-04-23T04:46:02.094Z,18.20
2018-04-23T04:48:28.289Z,18.10
2018-04-23T04:50:54.454Z,18.10
2018-04-23T04:53:21.766Z,18.20
2018-04-23T04:55:48.014Z,18.10
2018-04-23T04:58:15.353Z,18.20
2018-04-23T05:00:41.519Z,18.20
2018-04-23T05:03:07.705Z,18.20
2018-04-23T05:05:33.904Z,18.20
2018-04-23T05:08:00.080Z,18.30
2018-04-23T05:10:26.258Z,18.10
2018-04-23T05:12:52.435Z,18.20
2018-04-23T05:15:19.846Z,18.10
2018-04-23T05:17:46.067Z,18.10
2018-04-23T05:20:12.242Z,18.00
2018-04-23T05:22:38.477Z,18.20
2018-04-23T05:25:04.964Z,18.20
2018-04-23T05:27:31.202Z,18.10
2018-04-23T05:29:57.389Z,18.10
2018-04-23T05:32:23.639Z,18.00
2018-04-23T05:34:49.841Z,18.00
2018-04-23T05:37:16.039Z,18.10
2018-04-23T05:39:42.524Z,18.20
2018-04-23T05:42:09.813Z,18.30
2018-04-23T05:44:36.001Z,18.20
2018-04-23T05:47:02.225Z,18.20
2018-04-23T05:49:28.403Z,18.10
2018-04-23T05:51:55.701Z,18.40
2018-04-23T05:54:21.910Z,18.40
2018-04-23T05:56:48.184Z,18.40
2018-04-23T05:59:14.433Z,18.20
2018-04-23T06:01:41.767Z,18.20
2018-04-23T06:04:07.974Z,18.30
2018-04-23T06:06:35.073Z,18.30
2018-04-23T06:09:02.457Z,18.30
2018-04-23T06:11:28.666Z,18.30
2018-04-23T06:13:54.843Z,18.30
2018-04-23T06:16:22.132Z,18.50
2018-04-23T06:18:48.391Z,18.50
2018-04-23T06:21:15.693Z,18.40
2018-04-23T06:23:41.886Z,18.40
2018-04-23T06:26:08.086Z,18.40
2018-04-23T06:28:34.272Z,18.40
2018-04-23T06:31:00.585Z,18.30
2018-04-23T06:33:26.836Z,18.40
2018-04-23T06:35:53.003Z,18.30
2018-04-23T06:38:19.202Z,18.30
2018-04-23T06:40:46.599Z,18.50
2018-04-23T06:43:12.772Z,18.60
2018-04-23T06:45:38.945Z,18.50
2018-04-23T06:48:05.153Z,18.80
2018-04-23T06:50:31.355Z,18.80
2018-04-23T06:52:57.563Z,19.00
2018-04-23T06:55:23.758Z,19.10
2018-04-23T06:57:49.974Z,19.10
2018-04-23T07:00:16.187Z,18.80
2018-04-23T07:02:42.397Z,19.00
2018-04-23T07:05:08.624Z,18.90
2018-04-23T07:07:34.771Z,18.80
2018-04-23T07:10:00.967Z,18.60
2018-04-23T07:12:27.147Z,18.80
2018-04-23T07:14:53.327Z,19.10
2018-04-23T07:17:22.215Z,19.30
2018-04-23T07:19:49.558Z,19.40
2018-04-23T07:22:16.850Z,19.50
2018-04-23T07:24:43.055Z,19.50
2018-04-23T07:27:09.264Z,19.60
2018-04-23T07:29:35.471Z,19.50
2018-04-23T07:32:01.694Z,19.70
2018-04-23T07:34:27.950Z,19.50
2018-04-23T07:36:55.271Z,19.40
2018-04-23T07:39:22.619Z,19.40
2018-04-23T07:41:48.798Z,19.40
2018-04-23T07:44:16.061Z,19.10
2018-04-23T07:46:42.249Z,18.90
2018-04-23T07:49:08.439Z,19.10
2018-04-23T07:51:34.618Z,19.00
2018-04-23T07:54:00.796Z,18.80
2018-04-23T07:56:28.046Z,18.70
2018-04-23T07:58:54.244Z,18.70
2018-04-23T08:01:20.442Z,18.70
2018-04-23T08:03:46.630Z,18.80
2018-04-23T08:06:12.826Z,18.90
2018-04-23T08:08:40.158Z,19.30
2018-04-23T08:11:06.364Z,19.30
2018-04-23T08:13:32.680Z,19.40
2018-04-23T08:15:58.864Z,19.20
2018-04-23T08:18:25.069Z,18.90
2018-04-23T08:20:51.307Z,18.80
2018-04-23T08:23:17.495Z,19.00
2018-04-23T08:25:43.659Z,18.70
2018-04-23T08:28:09.859Z,18.90
2018-04-23T08:30:36.055Z,19.00
2018-04-23T08:33:02.271Z,19.20
2018-04-23T08:35:28.438Z,19.40
2018-04-23T08:37:54.664Z,19.80
2018-04-23T08:40:20.889Z,19.80
2018-04-23T08:42:47.062Z,19.90
2018-04-23T08:47:41.110Z,20.20
2018-04-23T08:50:07.283Z,20.30
2018-04-23T08:52:33.486Z,20.60
2018-04-23T08:54:59.683Z,20.90
2018-04-23T08:57:25.929Z,21.00
2018-04-23T08:59:52.176Z,20.80
2018-04-23T09:02:18.339Z,20.70
2018-04-23T09:04:44.514Z,20.70
2018-04-23T09:07:11.790Z,21.10
2018-04-23T09:09:37.976Z,21.10
2018-04-23T09:12:04.190Z,21.00
2018-04-23T09:14:31.469Z,21.80
2018-04-23T09:16:57.658Z,21.70
2018-04-23T09:19:23.828Z,21.70
2018-04-23T09:21:50.023Z,21.80
2018-04-23T09:24:16.254Z,22.00
2018-04-23T09:26:42.438Z,21.90
2018-04-23T09:29:08.658Z,21.70
2018-04-23T09:31:34.837Z,21.40
2018-04-23T09:34:02.123Z,21.10
2018-04-23T09:36:28.307Z,21.10
2018-04-23T09:38:54.627Z,21.20
2018-04-23T09:41:20.754Z,21.20
2018-04-23T09:43:46.950Z,21.30
2018-04-23T09:46:13.207Z,21.30
2018-04-23T09:48:40.530Z,21.20
2018-04-23T09:51:17.088Z,21.40
2018-04-23T09:53:43.506Z,21.80
2018-04-23T09:56:09.804Z,21.90
2018-04-23T09:58:36.117Z,21.30
2018-04-23T10:01:08.453Z,21.20
2018-04-23T10:03:40.793Z,21.60
2018-04-23T10:06:08.282Z,23.10
2018-04-23T10:08:37.158Z,23.10
2018-04-23T10:11:06.036Z,22.90
2018-04-23T10:13:32.218Z,22.90
2018-04-23T10:15:59.648Z,23.10
2018-04-23T10:18:26.199Z,23.00
2018-04-23T10:20:52.368Z,22.80
2018-04-23T10:23:18.852Z,23.40
2018-04-23T10:25:45.884Z,23.80
2018-04-23T10:28:13.097Z,24.60
2018-04-23T10:30:39.601Z,24.60
2018-04-23T10:33:05.793Z,24.70
2018-04-23T10:35:33.152Z,24.70
2018-04-23T10:38:01.117Z,25.20
2018-04-23T10:40:27.941Z,25.00
2018-04-23T10:42:54.438Z,25.10
2018-04-23T10:47:49.244Z,23.80
2018-04-23T10:50:15.499Z,24.00
2018-04-23T10:52:41.959Z,24.10
2018-04-23T10:55:09.386Z,24.10
2018-04-23T10:57:35.873Z,24.60
2018-04-23T11:00:02.329Z,25.20
2018-04-23T11:02:30.248Z,25.50
2018-04-23T11:04:56.744Z,25.50
2018-04-23T11:07:23.159Z,25.70
2018-04-23T11:09:59.508Z,26.20
2018-04-23T11:12:25.723Z,25.80
2018-04-23T11:14:51.903Z,25.80
2018-04-23T11:17:18.857Z,26.80
2018-04-23T11:19:45.040Z,26.70
2018-04-23T11:22:11.210Z,26.20
2018-04-23T11:24:37.368Z,26.40
2018-04-23T11:27:04.314Z,26.70
2018-04-23T11:29:31.260Z,26.90
2018-04-23T11:31:57.439Z,26.90
2018-04-23T11:34:25.929Z,25.90
2018-04-23T11:36:52.107Z,25.80
2018-04-23T11:39:19.518Z,24.20
2018-04-23T11:41:45.782Z,24.10
2018-04-23T11:44:14.349Z,24.50
2018-04-23T11:46:40.866Z,24.50
2018-04-23T11:49:07.922Z,24.60
2018-04-23T11:51:34.418Z,24.60
2018-04-23T11:54:00.811Z,25.30
2018-04-23T11:56:27.113Z,26.00
2018-04-23T11:58:53.376Z,25.70
2018-04-23T12:01:21.147Z,28.50
2018-04-23T12:03:47.407Z,27.60
2018-04-23T12:06:14.135Z,26.50
2018-04-23T12:08:40.331Z,26.00
2018-04-23T12:11:06.864Z,24.80
2018-04-23T12:13:33.067Z,24.70
2018-04-23T12:15:59.358Z,24.40
2018-04-23T12:18:25.613Z,23.80
2018-04-23T12:20:51.814Z,23.40
2018-04-23T12:23:18.158Z,23.30
2018-04-23T12:25:44.331Z,23.20
2018-04-23T12:28:10.533Z,23.30
2018-04-23T12:30:36.690Z,23.40
2018-04-23T12:33:02.877Z,23.30
2018-04-23T12:35:29.034Z,23.20
2018-04-23T12:37:56.775Z,22.70
2018-04-23T12:40:22.951Z,22.60
2018-04-23T12:42:49.118Z,22.50
2018-04-23T12:45:16.487Z,22.30
2018-04-23T12:47:42.682Z,22.20
2018-04-23T12:50:08.853Z,21.80
2018-04-23T12:52:35.030Z,21.70
2018-04-23T12:55:01.322Z,21.60
2018-04-23T12:57:27.483Z,20.80
2018-04-23T12:59:53.650Z,20.20
2018-04-23T13:02:19.827Z,19.70
2018-04-23T13:04:46.060Z,19.20
2018-04-23T13:07:13.362Z,18.90
2018-04-23T13:09:39.536Z,18.90
2018-04-23T13:12:05.718Z,19.00
2018-04-23T13:14:32.998Z,19.10
2018-04-23T13:16:59.194Z,19.10
2018-04-23T13:19:25.373Z,19.40
2018-04-23T13:21:51.886Z,19.40
2018-04-23T13:24:18.158Z,19.60
2018-04-23T13:26:44.731Z,19.80
2018-04-23T13:29:12.030Z,20.30
2018-04-23T13:31:38.327Z,20.30
2018-04-23T13:34:04.670Z,20.40
2018-04-23T13:36:31.208Z,20.40
2018-04-23T13:38:57.692Z,20.90
2018-04-23T13:41:24.016Z,20.90
2018-04-23T13:43:50.278Z,21.10
2018-04-23T13:46:16.489Z,21.10
2018-04-23T13:48:43.823Z,22.00
2018-04-23T13:51:10.037Z,21.90
2018-04-23T13:53:36.250Z,22.20
2018-04-23T13:56:03.889Z,23.90
2018-04-23T13:58:30.128Z,23.30
2018-04-23T14:00:56.321Z,25.40
2018-04-23T14:03:22.531Z,27.80
2018-04-23T14:05:49.467Z,31.10
2018-04-23T14:08:16.411Z,30.90
2018-04-23T14:10:42.660Z,31.00
2018-04-23T14:13:08.878Z,30.40
2018-04-23T14:15:35.987Z,28.70
2018-04-23T14:18:02.666Z,28.10
2018-04-23T14:20:28.848Z,28.60
2018-04-23T14:22:55.049Z,29.90
2018-04-23T14:25:21.228Z,29.10
2018-04-23T14:27:48.182Z,29.40
2018-04-23T14:30:14.432Z,29.40
2018-04-23T14:32:40.643Z,29.20
2018-04-23T14:35:06.865Z,27.60
2018-04-23T14:37:33.085Z,27.70
2018-04-23T14:39:59.263Z,27.00
2018-04-23T14:42:25.446Z,26.30
2018-04-23T14:44:51.630Z,25.40
2018-04-23T14:47:17.833Z,25.00
2018-04-23T14:49:44.111Z,25.30
2018-04-23T14:52:10.283Z,25.20
2018-04-23T14:54:37.558Z,24.80
2018-04-23T14:57:03.733Z,24.80
2018-04-23T14:59:30.361Z,24.50
2018-04-23T15:01:56.546Z,24.70
2018-04-23T15:04:22.717Z,24.60
2018-04-23T15:06:48.910Z,24.30
2018-04-23T15:09:15.098Z,24.20
2018-04-23T15:11:41.302Z,23.80
2018-04-23T15:14:07.466Z,23.60
2018-04-23T15:16:33.632Z,23.30
2018-04-23T15:18:59.846Z,23.40
2018-04-23T15:21:26.775Z,23.60
2018-04-23T15:23:52.951Z,23.60
2018-04-23T15:26:19.164Z,23.60
2018-04-23T15:28:45.370Z,23.60
2018-04-23T15:31:11.582Z,23.50
2018-04-23T15:33:37.900Z,23.30
2018-04-23T15:36:05.205Z,23.20
2018-04-23T15:38:31.637Z,23.30
2018-04-23T15:40:57.910Z,23.20
2018-04-23T15:43:24.383Z,23.50
2018-04-23T15:45:50.563Z,23.50
2018-04-23T15:48:16.798Z,23.50
2018-04-23T15:50:43.018Z,23.50
2018-04-23T15:53:09.210Z,23.60
2018-04-23T15:55:36.503Z,23.50
2018-04-23T15:58:02.686Z,23.50
2018-04-23T16:00:28.866Z,23.40
2018-04-23T16:02:56.186Z,23.30
2018-04-23T16:05:22.358Z,23.30
2018-04-23T16:07:48.546Z,23.10
2018-04-23T16:12:44.149Z,22.60
2018-04-23T16:15:10.678Z,22.60
2018-04-23T16:17:48.678Z,22.60
2018-04-23T16:20:15.213Z,22.70
2018-04-23T16:22:41.533Z,22.60
2018-04-23T16:25:18.065Z,22.30
2018-04-23T16:27:44.481Z,22.40
2018-04-23T16:30:10.948Z,22.30
2018-04-23T16:32:37.796Z,22.40
2018-04-23T16:35:04.487Z,22.40
2018-04-23T16:37:31.202Z,22.40
2018-04-23T16:39:57.815Z,22.20
2018-04-23T16:42:25.504Z,22.10
2018-04-23T16:44:52.890Z,22.20
2018-04-23T16:47:21.586Z,22.00
2018-04-23T16:49:48.466Z,21.90
2018-04-23T16:52:15.364Z,22.00
2018-04-23T16:54:41.989Z,22.00
2018-04-23T16:57:09.610Z,21.70
2018-04-23T16:59:35.997Z,21.80
2018-04-23T17:02:03.593Z,21.80
2018-04-23T17:04:30.047Z,21.80
2018-04-23T17:06:56.689Z,21.80
2018-04-23T17:09:23.156Z,21.70
2018-04-23T17:11:49.475Z,21.70
2018-04-23T17:14:16.632Z,21.70
2018-04-23T17:16:43.861Z,21.80
2018-04-23T17:19:10.147Z,21.70
2018-04-23T17:21:36.414Z,21.60
2018-04-23T17:24:02.694Z,21.60
2018-04-23T17:26:28.926Z,21.60
2018-04-23T17:28:55.211Z,21.60
2018-04-23T17:31:21.393Z,21.40
2018-04-23T17:33:47.659Z,21.40
2018-04-23T17:36:13.904Z,21.30
2018-04-23T17:38:41.059Z,21.40
2018-04-23T17:41:07.248Z,21.40
2018-04-23T17:43:34.664Z,21.20
2018-04-23T17:46:00.868Z,21.10
2018-04-23T17:48:27.054Z,21.10
2018-04-23T17:50:53.246Z,21.00
2018-04-23T17:53:19.434Z,21.00
2018-04-23T17:55:45.754Z,21.00
2018-04-23T17:58:12.054Z,21.00
2018-04-23T18:00:38.242Z,20.90
2018-04-23T18:03:05.970Z,20.80
2018-04-23T18:05:32.595Z,20.70
2018-04-23T18:07:59.099Z,20.40
2018-04-23T18:10:25.584Z,20.30
2018-04-23T18:12:52.747Z,20.40
2018-04-23T18:15:19.479Z,20.30
2018-04-23T18:17:46.237Z,20.20
2018-04-23T18:20:12.953Z,20.10
2018-04-23T18:22:40.755Z,19.90
2018-04-23T18:25:07.485Z,19.90
2018-04-23T18:27:33.726Z,19.80
2018-04-23T18:30:00.201Z,19.60
2018-04-23T18:32:26.938Z,19.60
2018-04-23T18:34:53.823Z,19.70
2018-04-23T18:37:20.527Z,19.70
2018-04-23T18:39:46.760Z,19.60
2018-04-23T18:42:12.983Z,19.40
2018-04-23T18:44:39.201Z,19.40
2018-04-23T18:47:05.407Z,19.30
2018-04-23T18:49:31.931Z,19.30
2018-04-23T18:51:58.235Z,19.20
2018-04-23T18:54:25.094Z,19.10
2018-04-23T18:56:51.927Z,19.00
2018-04-23T18:59:19.907Z,19.10
2018-04-23T19:01:46.427Z,19.00
2018-04-23T19:04:12.736Z,18.80
2018-04-23T19:06:39.088Z,18.80
2018-04-23T19:09:05.371Z,18.80
2018-04-23T19:11:32.694Z,18.90
2018-04-23T19:13:58.903Z,18.90
2018-04-23T19:16:25.129Z,18.90
2018-04-23T19:18:51.328Z,18.80
2018-04-23T19:21:17.566Z,18.70
2018-04-23T19:23:44.858Z,18.60
2018-04-23T19:26:11.455Z,18.50
2018-04-23T19:28:37.687Z,18.60
2018-04-23T19:31:03.891Z,18.60
2018-04-23T19:33:30.059Z,18.60
2018-04-23T19:35:56.245Z,18.50
2018-04-23T19:38:26.855Z,18.40
2018-04-23T19:40:53.071Z,18.50
2018-04-23T19:43:19.410Z,18.40
2018-04-23T19:45:45.657Z,18.50
2018-04-23T19:48:13.019Z,18.30
2018-04-23T19:50:39.231Z,18.40
2018-04-23T19:53:05.410Z,18.20
2018-04-23T19:55:31.733Z,18.20
2018-04-23T19:58:01.132Z,18.40
2018-04-23T20:00:27.418Z,18.40
2018-04-23T20:02:54.621Z,18.30
2018-04-23T20:05:20.782Z,18.40
2018-04-23T20:07:57.887Z,18.20
2018-04-23T20:10:26.166Z,18.20
2018-04-23T20:12:53.013Z,18.10
2018-04-23T20:15:20.521Z,18.10
2018-04-23T20:17:49.096Z,18.10
2018-04-23T20:20:15.443Z,18.10
2018-04-23T20:22:41.868Z,18.20
2018-04-23T20:25:08.095Z,18.00
2018-04-23T20:27:35.511Z,18.10
2018-04-23T20:30:01.787Z,18.00
2018-04-23T20:32:29.094Z,18.10
2018-04-23T20:34:57.588Z,18.00
2018-04-23T20:37:23.789Z,18.20
2018-04-23T20:39:49.984Z,18.10
2018-04-23T20:42:17.664Z,18.10
2018-04-23T20:44:44.005Z,18.10
2018-04-23T20:47:10.193Z,18.00
2018-04-23T20:49:36.379Z,18.00
2018-04-23T20:52:03.686Z,18.00
2018-04-23T20:54:29.941Z,18.00
2018-04-23T20:56:56.181Z,17.90
2018-04-23T20:59:22.371Z,17.90
2018-04-23T21:01:48.610Z,17.90
2018-04-23T21:04:14.810Z,17.80
2018-04-23T21:06:41.958Z,17.90
2018-04-23T21:09:08.147Z,17.80
2018-04-23T21:11:35.428Z,17.70
2018-04-23T21:14:03.034Z,17.70
2018-04-23T21:16:29.247Z,17.40
2018-04-23T21:18:55.772Z,17.60
2018-04-23T21:21:24.113Z,17.40
2018-04-23T21:23:51.420Z,17.50
2018-04-23T21:26:17.728Z,17.40
2018-04-23T21:28:43.932Z,17.50
2018-04-23T21:31:10.313Z,17.30
2018-04-23T21:33:36.517Z,17.30
2018-04-23T21:36:03.818Z,17.10
2018-04-23T21:38:30.078Z,17.00
2018-04-23T21:40:57.359Z,17.00
2018-04-23T21:43:23.531Z,17.00
2018-04-23T21:45:50.818Z,17.20
2018-04-23T21:48:17.010Z,17.10
2018-04-23T21:50:43.270Z,17.10
2018-04-23T21:53:09.446Z,17.10
2018-04-23T21:55:35.620Z,16.90
2018-04-23T21:58:02.931Z,16.90
2018-04-23T22:00:29.138Z,16.80
2018-04-23T22:02:55.338Z,16.90
2018-04-23T22:05:21.576Z,17.00
2018-04-23T22:07:47.710Z,16.90
2018-04-23T22:10:15.065Z,16.90
2018-04-23T22:12:41.246Z,16.80
2018-04-23T22:15:08.609Z,16.70
2018-04-23T22:17:34.781Z,16.70
2018-04-23T22:20:00.969Z,16.80
2018-04-23T22:22:27.143Z,16.60
2018-04-23T22:24:54.425Z,16.60
2018-04-23T22:27:20.604Z,16.60
2018-04-23T22:29:46.823Z,16.70
2018-04-23T22:32:13.114Z,16.50
2018-04-23T22:34:39.294Z,16.50
2018-04-23T22:37:05.513Z,16.50
2018-04-23T22:39:31.709Z,16.50
2018-04-23T22:41:57.969Z,16.40
2018-04-23T22:44:24.143Z,16.40
2018-04-23T22:46:50.326Z,16.40
2018-04-23T22:49:16.538Z,16.40
2018-04-23T22:51:42.717Z,16.30
2018-04-23T22:54:08.933Z,16.40
2018-04-23T22:56:35.103Z,16.40
2018-04-23T22:59:01.276Z,16.10
2018-04-23T23:03:55.374Z,16.00
2018-04-23T23:06:21.554Z,15.90
2018-04-23T23:08:47.723Z,15.90
2018-04-23T23:11:13.918Z,15.80
2018-04-23T23:13:40.102Z,15.80
2018-04-23T23:16:06.309Z,15.90
2018-04-23T23:18:33.582Z,15.70
2018-04-23T23:20:59.818Z,15.60
2018-04-23T23:23:25.977Z,15.70
2018-04-23T23:25:52.158Z,15.70
2018-04-23T23:28:18.334Z,15.60
2018-04-23T23:30:44.518Z,15.60
2018-04-23T23:33:10.707Z,15.80
2018-04-23T23:35:38.477Z,15.60
2018-04-23T23:38:04.674Z,15.60
2018-04-23T23:40:31.955Z,15.70
2018-04-23T23:42:58.106Z,15.60
2018-04-23T23:45:24.277Z,15.40
2018-04-23T23:47:50.455Z,15.50
2018-04-23T23:50:17.780Z,15.60
2018-04-23T23:52:43.957Z,15.50
2018-04-23T23:55:10.146Z,15.60
2018-04-23T23:57:36.302Z,15.40
